sensor_id;sensor_type;location;lat;lon;timestamp;P1;P2;P0
64861;PMS5003;62652;42.274;-71.436;2023-03-11T00:00:00;3.87;3.87;2.87
64861;PMS5003;62652;42.274;-71.436;2023-03-11T00:01:00;3.07;3.07;2.57
64861;PMS5003;62652;42.274;-71.436;2023-03-11T00:02:00;5.10;4.53;2.60
64861;PMS5003;62652;42.274;-71.436;2023-03-11T00:03:01;3.47;3.47;2.80
64861;PMS5003;62652;42.274;-71.436;2023-03-11T00:04:00;3.50;3.27;2.33
64861;PMS5003;62652;42.274;-71.436;2023-03-11T00:05:00;3.60;3.53;2.13
64861;PMS5003;62652;42.274;-71.436;2023-03-11T00:06:00;3.17;2.40;1.40
64861;PMS5003;62652;42.274;-71.436;2023-03-11T00:07:00;3.63;3.53;2.47
64861;PMS5003;62652;42.274;-71.436;2023-03-11T00:08:01;3.60;3.60;2.33
64861;PMS5003;62652;42.274;-71.436;2023-03-11T00:09:00;3.50;3.50;2.27
64861;PMS5003;62652;42.274;-71.436;2023-03-11T00:10:00;2.53;2.43;1.43
64861;PMS5003;62652;42.274;-71.436;2023-03-11T00:11:00;2.67;2.67;1.50
64861;PMS5003;62652;42.274;-71.436;2023-03-11T00:12:00;3.77;3.77;2.43
64861;PMS5003;62652;42.274;-71.436;2023-03-11T00:13:01;3.47;3.27;2.00
64861;PMS5003;62652;42.274;-71.436;2023-03-11T00:14:01;4.10;4.10;2.73
64861;PMS5003;62652;42.274;-71.436;2023-03-11T00:15:00;3.90;3.70;2.60
64861;PMS5003;62652;42.274;-71.436;2023-03-11T00:16:01;2.90;2.90;1.87
64861;PMS5003;62652;42.274;-71.436;2023-03-11T00:17:00;3.90;3.90;2.53
64861;PMS5003;62652;42.274;-71.436;2023-03-11T00:18:00;4.23;3.70;2.80
64861;PMS5003;62652;42.274;-71.436;2023-03-11T00:19:00;4.10;3.90;2.47
64861;PMS5003;62652;42.274;-71.436;2023-03-11T00:20:01;4.10;4.00;2.60
64861;PMS5003;62652;42.274;-71.436;2023-03-11T00:21:00;4.23;4.07;2.80
64861;PMS5003;62652;42.274;-71.436;2023-03-11T00:22:01;3.93;3.70;2.23
64861;PMS5003;62652;42.274;-71.436;2023-03-11T00:23:01;3.57;3.30;2.27
64861;PMS5003;62652;42.274;-71.436;2023-03-11T00:24:00;3.87;3.87;3.13
64861;PMS5003;62652;42.274;-71.436;2023-03-11T00:25:01;3.57;3.57;2.87
64861;PMS5003;62652;42.274;-71.436;2023-03-11T00:26:00;5.23;5.23;4.10
64861;PMS5003;62652;42.274;-71.436;2023-03-11T00:27:00;3.77;3.77;1.80
64861;PMS5003;62652;42.274;-71.436;2023-03-11T00:28:01;5.20;5.00;4.00
64861;PMS5003;62652;42.274;-71.436;2023-03-11T00:29:00;4.77;4.57;3.43
64861;PMS5003;62652;42.274;-71.436;2023-03-11T00:30:00;5.67;4.90;3.20
64861;PMS5003;62652;42.274;-71.436;2023-03-11T00:31:01;8.20;6.83;4.73
64861;PMS5003;62652;42.274;-71.436;2023-03-11T00:32:00;11.87;10.53;7.50
64861;PMS5003;62652;42.274;-71.436;2023-03-11T00:33:00;6.60;6.07;3.53
64861;PMS5003;62652;42.274;-71.436;2023-03-11T00:34:00;6.60;6.07;3.67
64861;PMS5003;62652;42.274;-71.436;2023-03-11T00:35:00;6.17;6.07;4.23
64861;PMS5003;62652;42.274;-71.436;2023-03-11T00:36:00;7.73;7.47;4.10
64861;PMS5003;62652;42.274;-71.436;2023-03-11T00:37:00;5.00;4.80;3.93
64861;PMS5003;62652;42.274;-71.436;2023-03-11T00:38:01;6.87;6.57;4.27
64861;PMS5003;62652;42.274;-71.436;2023-03-11T00:39:01;7.17;6.53;4.73
64861;PMS5003;62652;42.274;-71.436;2023-03-11T00:40:00;5.73;5.03;3.90
64861;PMS5003;62652;42.274;-71.436;2023-03-11T00:41:00;5.80;4.97;3.80
64861;PMS5003;62652;42.274;-71.436;2023-03-11T00:42:00;5.80;5.70;4.40
64861;PMS5003;62652;42.274;-71.436;2023-03-11T00:43:01;6.50;5.80;4.20
64861;PMS5003;62652;42.274;-71.436;2023-03-11T00:44:00;5.00;4.80;2.90
64861;PMS5003;62652;42.274;-71.436;2023-03-11T00:45:00;4.47;4.30;3.00
64861;PMS5003;62652;42.274;-71.436;2023-03-11T00:46:00;6.07;5.43;4.10
64861;PMS5003;62652;42.274;-71.436;2023-03-11T00:47:01;5.03;4.73;3.00
64861;PMS5003;62652;42.274;-71.436;2023-03-11T00:48:00;5.73;5.13;3.30
64861;PMS5003;62652;42.274;-71.436;2023-03-11T00:49:00;5.23;5.00;3.07
64861;PMS5003;62652;42.274;-71.436;2023-03-11T00:50:00;6.40;6.13;4.07
64861;PMS5003;62652;42.274;-71.436;2023-03-11T00:51:00;5.87;5.03;2.97
64861;PMS5003;62652;42.274;-71.436;2023-03-11T00:52:00;6.50;5.23;2.97
64861;PMS5003;62652;42.274;-71.436;2023-03-11T00:53:00;5.73;5.10;3.87
64861;PMS5003;62652;42.274;-71.436;2023-03-11T00:54:00;6.33;5.93;4.20
64861;PMS5003;62652;42.274;-71.436;2023-03-11T00:55:00;5.17;4.83;3.53
64861;PMS5003;62652;42.274;-71.436;2023-03-11T00:56:05;3.77;3.77;2.90
64861;PMS5003;62652;42.274;-71.436;2023-03-11T00:57:00;4.97;4.60;3.60
64861;PMS5003;62652;42.274;-71.436;2023-03-11T00:58:02;5.37;5.37;3.10
64861;PMS5003;62652;42.274;-71.436;2023-03-11T00:59:00;5.47;4.90;3.43
64861;PMS5003;62652;42.274;-71.436;2023-03-11T01:00:00;3.90;3.80;2.37
64861;PMS5003;62652;42.274;-71.436;2023-03-11T01:01:00;6.70;6.23;4.37
64861;PMS5003;62652;42.274;-71.436;2023-03-11T01:02:00;7.23;6.17;5.00
64861;PMS5003;62652;42.274;-71.436;2023-03-11T01:03:00;5.17;4.50;3.07
64861;PMS5003;62652;42.274;-71.436;2023-03-11T01:04:00;5.37;5.00;3.30
64861;PMS5003;62652;42.274;-71.436;2023-03-11T01:05:00;4.23;4.23;2.53
64861;PMS5003;62652;42.274;-71.436;2023-03-11T01:06:01;5.60;5.23;3.33
64861;PMS5003;62652;42.274;-71.436;2023-03-11T01:07:00;5.33;5.13;3.30
64861;PMS5003;62652;42.274;-71.436;2023-03-11T01:08:01;5.97;5.20;3.57
64861;PMS5003;62652;42.274;-71.436;2023-03-11T01:09:01;5.63;5.07;3.00
64861;PMS5003;62652;42.274;-71.436;2023-03-11T01:10:01;4.93;4.47;2.33
64861;PMS5003;62652;42.274;-71.436;2023-03-11T01:11:01;5.17;4.63;2.63
64861;PMS5003;62652;42.274;-71.436;2023-03-11T01:12:00;5.60;5.03;3.23
64861;PMS5003;62652;42.274;-71.436;2023-03-11T01:13:01;5.90;4.53;3.13
64861;PMS5003;62652;42.274;-71.436;2023-03-11T01:14:01;4.33;4.17;3.33
64861;PMS5003;62652;42.274;-71.436;2023-03-11T01:15:00;6.30;5.43;3.80
64861;PMS5003;62652;42.274;-71.436;2023-03-11T01:16:00;5.63;5.60;3.90
64861;PMS5003;62652;42.274;-71.436;2023-03-11T01:17:00;6.33;4.97;3.33
64861;PMS5003;62652;42.274;-71.436;2023-03-11T01:18:01;6.43;6.07;3.33
64861;PMS5003;62652;42.274;-71.436;2023-03-11T01:19:00;6.83;6.03;4.37
64861;PMS5003;62652;42.274;-71.436;2023-03-11T01:20:01;6.30;4.87;3.40
64861;PMS5003;62652;42.274;-71.436;2023-03-11T01:21:00;5.40;4.60;3.13
64861;PMS5003;62652;42.274;-71.436;2023-03-11T01:22:00;7.43;5.80;4.00
64861;PMS5003;62652;42.274;-71.436;2023-03-11T01:23:00;11.33;10.73;6.93
64861;PMS5003;62652;42.274;-71.436;2023-03-11T01:24:00;6.63;6.43;4.60
64861;PMS5003;62652;42.274;-71.436;2023-03-11T01:25:00;7.97;7.97;4.37
64861;PMS5003;62652;42.274;-71.436;2023-03-11T01:26:00;5.43;5.23;3.60
64861;PMS5003;62652;42.274;-71.436;2023-03-11T01:27:00;5.73;5.63;3.40
64861;PMS5003;62652;42.274;-71.436;2023-03-11T01:28:00;7.67;6.97;5.07
64861;PMS5003;62652;42.274;-71.436;2023-03-11T01:29:00;6.17;5.67;4.10
64861;PMS5003;62652;42.274;-71.436;2023-03-11T01:30:00;8.13;7.27;5.00
64861;PMS5003;62652;42.274;-71.436;2023-03-11T01:31:01;9.70;9.00;6.93
64861;PMS5003;62652;42.274;-71.436;2023-03-11T01:32:00;6.70;6.43;3.90
64861;PMS5003;62652;42.274;-71.436;2023-03-11T01:33:01;8.97;8.97;7.40
64861;PMS5003;62652;42.274;-71.436;2023-03-11T01:34:00;8.47;8.00;6.33
64861;PMS5003;62652;42.274;-71.436;2023-03-11T01:35:00;6.30;5.83;4.00
64861;PMS5003;62652;42.274;-71.436;2023-03-11T01:36:01;7.07;6.60;4.53
64861;PMS5003;62652;42.274;-71.436;2023-03-11T01:37:00;6.47;6.47;4.90
64861;PMS5003;62652;42.274;-71.436;2023-03-11T01:38:00;8.60;8.03;6.23
64861;PMS5003;62652;42.274;-71.436;2023-03-11T01:39:00;7.67;7.07;4.27
64861;PMS5003;62652;42.274;-71.436;2023-03-11T01:40:00;7.57;7.03;5.40
64861;PMS5003;62652;42.274;-71.436;2023-03-11T01:41:00;6.93;6.00;3.27
64861;PMS5003;62652;42.274;-71.436;2023-03-11T01:42:00;7.77;6.50;4.20
64861;PMS5003;62652;42.274;-71.436;2023-03-11T01:43:01;7.93;5.97;3.77
64861;PMS5003;62652;42.274;-71.436;2023-03-11T01:44:00;6.87;6.67;4.53
64861;PMS5003;62652;42.274;-71.436;2023-03-11T01:45:00;7.60;7.17;5.30
64861;PMS5003;62652;42.274;-71.436;2023-03-11T01:46:05;5.77;5.57;3.93
64861;PMS5003;62652;42.274;-71.436;2023-03-11T01:48:00;6.23;5.70;3.70
64861;PMS5003;62652;42.274;-71.436;2023-03-11T01:49:01;7.90;7.43;5.07
64861;PMS5003;62652;42.274;-71.436;2023-03-11T01:50:00;7.27;7.07;4.57
64861;PMS5003;62652;42.274;-71.436;2023-03-11T01:51:00;5.90;5.90;4.10
64861;PMS5003;62652;42.274;-71.436;2023-03-11T01:52:01;7.53;6.73;5.00
64861;PMS5003;62652;42.274;-71.436;2023-03-11T01:53:01;7.00;6.80;4.60
64861;PMS5003;62652;42.274;-71.436;2023-03-11T01:54:02;6.40;6.07;3.40
64861;PMS5003;62652;42.274;-71.436;2023-03-11T01:55:00;8.53;5.43;3.77
64861;PMS5003;62652;42.274;-71.436;2023-03-11T01:56:00;6.40;6.40;3.57
64861;PMS5003;62652;42.274;-71.436;2023-03-11T01:57:01;6.80;6.03;4.00
64861;PMS5003;62652;42.274;-71.436;2023-03-11T01:58:01;7.37;7.37;5.43
64861;PMS5003;62652;42.274;-71.436;2023-03-11T01:59:00;9.23;8.23;6.23
64861;PMS5003;62652;42.274;-71.436;2023-03-11T02:00:00;8.03;7.87;5.37
64861;PMS5003;62652;42.274;-71.436;2023-03-11T02:01:00;7.77;7.47;4.83
64861;PMS5003;62652;42.274;-71.436;2023-03-11T02:02:01;6.87;6.17;4.80
64861;PMS5003;62652;42.274;-71.436;2023-03-11T02:03:01;6.50;6.13;4.43
64861;PMS5003;62652;42.274;-71.436;2023-03-11T02:04:02;7.80;7.40;5.00
64861;PMS5003;62652;42.274;-71.436;2023-03-11T02:05:01;6.07;5.90;4.20
64861;PMS5003;62652;42.274;-71.436;2023-03-11T02:06:01;10.57;9.80;6.27
64861;PMS5003;62652;42.274;-71.436;2023-03-11T02:07:00;7.60;7.60;4.77
64861;PMS5003;62652;42.274;-71.436;2023-03-11T02:08:00;7.90;7.63;5.97
64861;PMS5003;62652;42.274;-71.436;2023-03-11T02:09:00;7.17;6.80;5.43
64861;PMS5003;62652;42.274;-71.436;2023-03-11T02:10:00;10.07;10.07;7.27
64861;PMS5003;62652;42.274;-71.436;2023-03-11T02:11:01;11.03;10.43;8.40
64861;PMS5003;62652;42.274;-71.436;2023-03-11T02:12:00;8.70;7.50;5.57
64861;PMS5003;62652;42.274;-71.436;2023-03-11T02:13:01;11.23;9.93;7.40
64861;PMS5003;62652;42.274;-71.436;2023-03-11T02:14:01;9.27;8.90;7.27
64861;PMS5003;62652;42.274;-71.436;2023-03-11T02:15:01;10.33;9.97;8.07
64861;PMS5003;62652;42.274;-71.436;2023-03-11T02:16:00;10.13;9.83;7.93
64861;PMS5003;62652;42.274;-71.436;2023-03-11T02:17:00;8.73;7.93;6.20
64861;PMS5003;62652;42.274;-71.436;2023-03-11T02:18:01;9.03;8.60;6.53
64861;PMS5003;62652;42.274;-71.436;2023-03-11T02:19:03;7.53;7.43;5.83
64861;PMS5003;62652;42.274;-71.436;2023-03-11T02:20:03;9.53;9.17;5.53
64861;PMS5003;62652;42.274;-71.436;2023-03-11T02:21:03;8.93;8.57;7.07
64861;PMS5003;62652;42.274;-71.436;2023-03-11T02:22:00;9.33;6.97;5.00
64861;PMS5003;62652;42.274;-71.436;2023-03-11T02:23:00;7.87;7.60;5.07
64861;PMS5003;62652;42.274;-71.436;2023-03-11T02:24:03;7.33;6.77;4.97
64861;PMS5003;62652;42.274;-71.436;2023-03-11T02:25:02;8.10;7.97;5.60
64861;PMS5003;62652;42.274;-71.436;2023-03-11T02:26:03;7.23;6.67;4.57
64861;PMS5003;62652;42.274;-71.436;2023-03-11T02:27:02;7.77;7.00;5.67
64861;PMS5003;62652;42.274;-71.436;2023-03-11T02:28:00;8.10;8.10;5.30
64861;PMS5003;62652;42.274;-71.436;2023-03-11T02:29:00;9.13;8.10;6.30
64861;PMS5003;62652;42.274;-71.436;2023-03-11T02:30:00;8.27;7.60;4.87
64861;PMS5003;62652;42.274;-71.436;2023-03-11T02:31:00;8.70;7.60;5.90
64861;PMS5003;62652;42.274;-71.436;2023-03-11T02:32:02;8.20;8.10;5.53
64861;PMS5003;62652;42.274;-71.436;2023-03-11T02:33:00;8.73;8.40;5.80
64861;PMS5003;62652;42.274;-71.436;2023-03-11T02:34:01;8.67;8.43;6.33
64861;PMS5003;62652;42.274;-71.436;2023-03-11T02:35:00;8.40;7.73;5.73
64861;PMS5003;62652;42.274;-71.436;2023-03-11T02:36:00;9.60;8.50;5.43
64861;PMS5003;62652;42.274;-71.436;2023-03-11T02:37:02;7.93;7.17;5.00
64861;PMS5003;62652;42.274;-71.436;2023-03-11T02:38:00;9.33;9.33;5.50
64861;PMS5003;62652;42.274;-71.436;2023-03-11T02:39:00;8.77;8.73;6.33
64861;PMS5003;62652;42.274;-71.436;2023-03-11T02:41:01;7.43;7.43;5.90
64861;PMS5003;62652;42.274;-71.436;2023-03-11T02:42:01;8.73;8.73;5.77
64861;PMS5003;62652;42.274;-71.436;2023-03-11T02:43:01;11.13;10.30;7.70
64861;PMS5003;62652;42.274;-71.436;2023-03-11T02:44:01;7.93;7.63;5.57
64861;PMS5003;62652;42.274;-71.436;2023-03-11T02:45:02;11.10;11.07;8.73
64861;PMS5003;62652;42.274;-71.436;2023-03-11T02:46:00;14.80;14.37;11.00
64861;PMS5003;62652;42.274;-71.436;2023-03-11T02:47:00;10.80;9.83;6.63
64861;PMS5003;62652;42.274;-71.436;2023-03-11T02:48:00;7.67;7.30;5.77
64861;PMS5003;62652;42.274;-71.436;2023-03-11T02:49:00;7.60;6.27;5.17
64861;PMS5003;62652;42.274;-71.436;2023-03-11T02:50:00;6.83;6.60;5.07
64861;PMS5003;62652;42.274;-71.436;2023-03-11T02:51:00;7.40;7.40;4.53
64861;PMS5003;62652;42.274;-71.436;2023-03-11T02:52:00;13.47;12.93;9.70
64861;PMS5003;62652;42.274;-71.436;2023-03-11T02:53:00;10.97;10.17;7.73
64861;PMS5003;62652;42.274;-71.436;2023-03-11T02:54:02;10.83;9.87;7.17
64861;PMS5003;62652;42.274;-71.436;2023-03-11T02:55:00;7.40;7.13;5.03
64861;PMS5003;62652;42.274;-71.436;2023-03-11T02:56:00;10.33;8.33;5.43
64861;PMS5003;62652;42.274;-71.436;2023-03-11T02:57:00;8.37;7.43;5.73
64861;PMS5003;62652;42.274;-71.436;2023-03-11T02:58:00;8.20;8.10;5.10
64861;PMS5003;62652;42.274;-71.436;2023-03-11T02:59:01;7.10;6.00;4.30
64861;PMS5003;62652;42.274;-71.436;2023-03-11T03:00:00;9.43;7.50;5.53
64861;PMS5003;62652;42.274;-71.436;2023-03-11T03:01:00;6.13;5.87;4.40
64861;PMS5003;62652;42.274;-71.436;2023-03-11T03:02:00;9.23;7.87;6.07
64861;PMS5003;62652;42.274;-71.436;2023-03-11T03:03:00;8.27;7.73;5.10
64861;PMS5003;62652;42.274;-71.436;2023-03-11T03:04:00;7.13;7.03;5.47
64861;PMS5003;62652;42.274;-71.436;2023-03-11T03:05:00;8.40;8.23;5.27
64861;PMS5003;62652;42.274;-71.436;2023-03-11T03:06:00;8.43;7.63;5.67
64861;PMS5003;62652;42.274;-71.436;2023-03-11T03:07:00;7.47;7.23;4.50
64861;PMS5003;62652;42.274;-71.436;2023-03-11T03:08:01;8.30;7.53;4.77
64861;PMS5003;62652;42.274;-71.436;2023-03-11T03:09:00;8.83;8.83;6.87
64861;PMS5003;62652;42.274;-71.436;2023-03-11T03:10:01;9.43;9.30;5.80
64861;PMS5003;62652;42.274;-71.436;2023-03-11T03:11:00;6.80;6.80;4.80
64861;PMS5003;62652;42.274;-71.436;2023-03-11T03:12:01;8.50;6.23;4.70
64861;PMS5003;62652;42.274;-71.436;2023-03-11T03:13:00;10.03;7.63;4.53
64861;PMS5003;62652;42.274;-71.436;2023-03-11T03:14:00;6.63;6.63;4.37
64861;PMS5003;62652;42.274;-71.436;2023-03-11T03:15:00;9.10;8.83;6.10
64861;PMS5003;62652;42.274;-71.436;2023-03-11T03:16:00;9.57;8.70;7.00
64861;PMS5003;62652;42.274;-71.436;2023-03-11T03:17:00;15.93;15.40;12.23
64861;PMS5003;62652;42.274;-71.436;2023-03-11T03:18:00;9.47;9.47;7.00
64861;PMS5003;62652;42.274;-71.436;2023-03-11T03:19:00;11.80;10.53;8.87
64861;PMS5003;62652;42.274;-71.436;2023-03-11T03:20:00;10.80;9.30;7.63
64861;PMS5003;62652;42.274;-71.436;2023-03-11T03:21:00;7.80;7.70;5.60
64861;PMS5003;62652;42.274;-71.436;2023-03-11T03:22:00;9.67;9.27;6.97
64861;PMS5003;62652;42.274;-71.436;2023-03-11T03:23:00;10.77;9.90;6.27
64861;PMS5003;62652;42.274;-71.436;2023-03-11T03:24:00;9.37;7.83;5.73
64861;PMS5003;62652;42.274;-71.436;2023-03-11T03:25:00;7.40;7.40;5.07
64861;PMS5003;62652;42.274;-71.436;2023-03-11T03:26:00;8.40;8.03;5.37
64861;PMS5003;62652;42.274;-71.436;2023-03-11T03:27:00;7.37;6.67;4.80
64861;PMS5003;62652;42.274;-71.436;2023-03-11T03:28:00;7.57;7.57;5.60
64861;PMS5003;62652;42.274;-71.436;2023-03-11T03:29:00;8.23;7.50;5.20
64861;PMS5003;62652;42.274;-71.436;2023-03-11T03:30:01;7.17;5.97;4.57
64861;PMS5003;62652;42.274;-71.436;2023-03-11T03:31:04;10.33;8.63;5.57
64861;PMS5003;62652;42.274;-71.436;2023-03-11T03:32:01;7.20;6.40;4.40
64861;PMS5003;62652;42.274;-71.436;2023-03-11T03:33:00;8.23;7.53;5.10
64861;PMS5003;62652;42.274;-71.436;2023-03-11T03:34:00;9.13;8.70;5.20
64861;PMS5003;62652;42.274;-71.436;2023-03-11T03:35:00;8.23;7.70;6.10
64861;PMS5003;62652;42.274;-71.436;2023-03-11T03:36:01;9.17;8.30;6.00
64861;PMS5003;62652;42.274;-71.436;2023-03-11T03:37:00;6.47;6.37;4.47
64861;PMS5003;62652;42.274;-71.436;2023-03-11T03:38:00;9.37;7.97;5.43
64861;PMS5003;62652;42.274;-71.436;2023-03-11T03:39:00;8.40;7.73;5.33
64861;PMS5003;62652;42.274;-71.436;2023-03-11T03:40:00;10.43;9.20;5.77
64861;PMS5003;62652;42.274;-71.436;2023-03-11T03:41:00;6.60;6.20;4.90
64861;PMS5003;62652;42.274;-71.436;2023-03-11T03:42:00;7.33;7.00;4.90
64861;PMS5003;62652;42.274;-71.436;2023-03-11T03:43:00;8.00;7.13;5.00
64861;PMS5003;62652;42.274;-71.436;2023-03-11T03:44:00;9.63;8.23;6.17
64861;PMS5003;62652;42.274;-71.436;2023-03-11T03:45:00;7.97;7.57;5.43
64861;PMS5003;62652;42.274;-71.436;2023-03-11T03:46:01;8.77;8.63;5.77
64861;PMS5003;62652;42.274;-71.436;2023-03-11T03:47:00;7.70;7.53;5.03
64861;PMS5003;62652;42.274;-71.436;2023-03-11T03:48:00;8.53;8.43;5.77
64861;PMS5003;62652;42.274;-71.436;2023-03-11T03:49:00;7.77;6.90;4.97
64861;PMS5003;62652;42.274;-71.436;2023-03-11T03:50:01;8.50;8.13;5.57
64861;PMS5003;62652;42.274;-71.436;2023-03-11T03:51:02;11.83;10.20;7.30
64861;PMS5003;62652;42.274;-71.436;2023-03-11T03:52:00;7.73;7.47;5.30
64861;PMS5003;62652;42.274;-71.436;2023-03-11T03:53:00;9.67;9.43;6.97
64861;PMS5003;62652;42.274;-71.436;2023-03-11T03:54:01;10.03;9.07;6.33
64861;PMS5003;62652;42.274;-71.436;2023-03-11T03:55:00;9.33;8.53;6.13
64861;PMS5003;62652;42.274;-71.436;2023-03-11T03:56:01;8.50;7.90;5.00
64861;PMS5003;62652;42.274;-71.436;2023-03-11T03:57:00;9.30;8.90;6.07
64861;PMS5003;62652;42.274;-71.436;2023-03-11T03:58:00;8.60;7.93;6.07
64861;PMS5003;62652;42.274;-71.436;2023-03-11T03:59:00;8.87;8.40;6.67
64861;PMS5003;62652;42.274;-71.436;2023-03-11T04:00:00;8.07;7.30;5.37
64861;PMS5003;62652;42.274;-71.436;2023-03-11T04:01:00;10.37;8.00;5.17
64861;PMS5003;62652;42.274;-71.436;2023-03-11T04:02:00;8.97;8.97;6.23
64861;PMS5003;62652;42.274;-71.436;2023-03-11T04:03:00;8.87;8.23;5.93
64861;PMS5003;62652;42.274;-71.436;2023-03-11T04:04:00;9.50;8.20;6.73
64861;PMS5003;62652;42.274;-71.436;2023-03-11T04:05:01;9.50;8.43;5.10
64861;PMS5003;62652;42.274;-71.436;2023-03-11T04:06:08;10.00;9.20;6.50
64861;PMS5003;62652;42.274;-71.436;2023-03-11T04:07:02;9.63;9.20;6.00
64861;PMS5003;62652;42.274;-71.436;2023-03-11T04:08:00;7.57;7.43;5.73
64861;PMS5003;62652;42.274;-71.436;2023-03-11T04:09:00;10.40;9.53;7.00
64861;PMS5003;62652;42.274;-71.436;2023-03-11T04:10:00;9.93;9.00;6.93
64861;PMS5003;62652;42.274;-71.436;2023-03-11T04:11:00;9.47;8.97;6.57
64861;PMS5003;62652;42.274;-71.436;2023-03-11T04:12:00;9.73;8.57;4.77
64861;PMS5003;62652;42.274;-71.436;2023-03-11T04:13:00;9.63;9.63;6.30
64861;PMS5003;62652;42.274;-71.436;2023-03-11T04:14:00;8.97;8.97;5.83
64861;PMS5003;62652;42.274;-71.436;2023-03-11T04:15:00;10.40;9.77;6.97
64861;PMS5003;62652;42.274;-71.436;2023-03-11T04:16:02;9.17;8.60;5.93
64861;PMS5003;62652;42.274;-71.436;2023-03-11T04:17:00;6.93;6.23;3.80
64861;PMS5003;62652;42.274;-71.436;2023-03-11T04:18:00;7.57;7.20;5.30
64861;PMS5003;62652;42.274;-71.436;2023-03-11T04:19:00;7.93;7.23;5.17
64861;PMS5003;62652;42.274;-71.436;2023-03-11T04:20:00;7.80;7.60;4.80
64861;PMS5003;62652;42.274;-71.436;2023-03-11T04:21:03;10.53;10.27;6.93
64861;PMS5003;62652;42.274;-71.436;2023-03-11T04:22:00;9.17;8.53;5.90
64861;PMS5003;62652;42.274;-71.436;2023-03-11T04:23:00;9.53;9.37;5.47
64861;PMS5003;62652;42.274;-71.436;2023-03-11T04:24:00;9.30;8.67;5.37
64861;PMS5003;62652;42.274;-71.436;2023-03-11T04:25:00;9.50;8.97;5.17
64861;PMS5003;62652;42.274;-71.436;2023-03-11T04:26:00;11.37;10.47;7.00
64861;PMS5003;62652;42.274;-71.436;2023-03-11T04:27:01;11.33;10.67;7.07
64861;PMS5003;62652;42.274;-71.436;2023-03-11T04:28:00;8.33;8.33;6.17
64861;PMS5003;62652;42.274;-71.436;2023-03-11T04:29:00;9.37;8.90;5.50
64861;PMS5003;62652;42.274;-71.436;2023-03-11T04:30:00;10.83;10.57;5.80
64861;PMS5003;62652;42.274;-71.436;2023-03-11T04:31:00;9.10;8.80;6.47
64861;PMS5003;62652;42.274;-71.436;2023-03-11T04:32:00;9.57;8.80;5.70
64861;PMS5003;62652;42.274;-71.436;2023-03-11T04:33:00;11.10;9.80;6.93
64861;PMS5003;62652;42.274;-71.436;2023-03-11T04:34:00;10.60;10.13;6.53
64861;PMS5003;62652;42.274;-71.436;2023-03-11T04:35:00;9.33;8.30;6.23
64861;PMS5003;62652;42.274;-71.436;2023-03-11T04:36:03;11.53;10.73;7.87
64861;PMS5003;62652;42.274;-71.436;2023-03-11T04:37:00;11.30;9.10;6.67
64861;PMS5003;62652;42.274;-71.436;2023-03-11T04:38:01;9.70;9.30;6.63
64861;PMS5003;62652;42.274;-71.436;2023-03-11T04:39:00;10.43;9.67;6.53
64861;PMS5003;62652;42.274;-71.436;2023-03-11T04:40:00;10.57;9.70;6.57
64861;PMS5003;62652;42.274;-71.436;2023-03-11T04:41:00;10.57;10.20;6.00
64861;PMS5003;62652;42.274;-71.436;2023-03-11T04:42:00;9.57;9.07;6.20
64861;PMS5003;62652;42.274;-71.436;2023-03-11T04:43:00;9.17;8.77;6.53
64861;PMS5003;62652;42.274;-71.436;2023-03-11T04:44:00;10.90;10.40;6.83
64861;PMS5003;62652;42.274;-71.436;2023-03-11T04:45:00;10.83;10.00;6.87
64861;PMS5003;62652;42.274;-71.436;2023-03-11T04:46:00;11.20;10.63;5.97
64861;PMS5003;62652;42.274;-71.436;2023-03-11T04:47:00;9.87;9.77;6.70
64861;PMS5003;62652;42.274;-71.436;2023-03-11T04:48:00;11.03;9.30;6.00
64861;PMS5003;62652;42.274;-71.436;2023-03-11T04:49:00;8.90;8.40;6.03
64861;PMS5003;62652;42.274;-71.436;2023-03-11T04:50:00;11.53;11.07;6.13
64861;PMS5003;62652;42.274;-71.436;2023-03-11T04:51:00;12.27;11.00;7.50
64861;PMS5003;62652;42.274;-71.436;2023-03-11T04:52:00;10.80;10.27;7.13
64861;PMS5003;62652;42.274;-71.436;2023-03-11T04:53:00;9.73;9.27;6.60
64861;PMS5003;62652;42.274;-71.436;2023-03-11T04:54:00;11.87;9.77;6.80
64861;PMS5003;62652;42.274;-71.436;2023-03-11T04:55:00;10.93;10.93;6.30
64861;PMS5003;62652;42.274;-71.436;2023-03-11T04:56:00;11.13;11.13;7.00
64861;PMS5003;62652;42.274;-71.436;2023-03-11T04:57:00;11.30;10.23;5.90
64861;PMS5003;62652;42.274;-71.436;2023-03-11T04:58:00;10.67;9.90;6.07
64861;PMS5003;62652;42.274;-71.436;2023-03-11T04:59:00;9.53;8.87;6.00
64861;PMS5003;62652;42.274;-71.436;2023-03-11T05:00:01;11.77;10.67;7.00
64861;PMS5003;62652;42.274;-71.436;2023-03-11T05:01:00;10.90;9.77;6.67
64861;PMS5003;62652;42.274;-71.436;2023-03-11T05:02:00;9.80;9.30;6.53
64861;PMS5003;62652;42.274;-71.436;2023-03-11T05:03:00;9.93;9.20;6.50
64861;PMS5003;62652;42.274;-71.436;2023-03-11T05:04:00;12.60;11.53;8.10
64861;PMS5003;62652;42.274;-71.436;2023-03-11T05:05:00;11.23;9.73;6.57
64861;PMS5003;62652;42.274;-71.436;2023-03-11T05:06:00;14.30;13.13;7.60
64861;PMS5003;62652;42.274;-71.436;2023-03-11T05:07:00;15.23;13.37;8.70
64861;PMS5003;62652;42.274;-71.436;2023-03-11T05:08:00;13.53;12.67;8.47
64861;PMS5003;62652;42.274;-71.436;2023-03-11T05:09:00;11.43;10.83;7.33
64861;PMS5003;62652;42.274;-71.436;2023-03-11T05:10:00;12.03;11.03;8.00
64861;PMS5003;62652;42.274;-71.436;2023-03-11T05:11:01;11.77;11.20;7.33
64861;PMS5003;62652;42.274;-71.436;2023-03-11T05:12:00;13.23;11.03;7.17
64861;PMS5003;62652;42.274;-71.436;2023-03-11T05:13:00;11.53;9.97;7.20
64861;PMS5003;62652;42.274;-71.436;2023-03-11T05:14:00;10.93;10.47;7.40
64861;PMS5003;62652;42.274;-71.436;2023-03-11T05:15:00;11.40;11.20;7.73
64861;PMS5003;62652;42.274;-71.436;2023-03-11T05:16:00;11.90;11.40;7.13
64861;PMS5003;62652;42.274;-71.436;2023-03-11T05:17:00;10.10;10.10;6.47
64861;PMS5003;62652;42.274;-71.436;2023-03-11T05:18:00;11.00;9.70;7.00
64861;PMS5003;62652;42.274;-71.436;2023-03-11T05:19:00;11.47;11.43;7.90
64861;PMS5003;62652;42.274;-71.436;2023-03-11T05:20:00;12.23;10.77;7.00
64861;PMS5003;62652;42.274;-71.436;2023-03-11T05:21:00;12.40;11.03;8.20
64861;PMS5003;62652;42.274;-71.436;2023-03-11T05:22:01;15.70;15.10;10.27
64861;PMS5003;62652;42.274;-71.436;2023-03-11T05:23:00;13.10;12.80;8.20
64861;PMS5003;62652;42.274;-71.436;2023-03-11T05:24:00;10.07;9.53;7.13
64861;PMS5003;62652;42.274;-71.436;2023-03-11T05:25:00;11.97;11.13;6.97
64861;PMS5003;62652;42.274;-71.436;2023-03-11T05:26:00;11.00;10.27;7.53
64861;PMS5003;62652;42.274;-71.436;2023-03-11T05:27:00;10.93;10.40;6.17
64861;PMS5003;62652;42.274;-71.436;2023-03-11T05:28:00;12.50;9.67;6.27
64861;PMS5003;62652;42.274;-71.436;2023-03-11T05:29:00;13.53;13.20;9.73
64861;PMS5003;62652;42.274;-71.436;2023-03-11T05:30:00;10.57;9.97;7.00
64861;PMS5003;62652;42.274;-71.436;2023-03-11T05:31:00;11.50;10.43;7.13
64861;PMS5003;62652;42.274;-71.436;2023-03-11T05:32:00;10.07;8.47;5.77
64861;PMS5003;62652;42.274;-71.436;2023-03-11T05:33:00;13.57;12.80;9.07
64861;PMS5003;62652;42.274;-71.436;2023-03-11T05:34:00;11.20;10.10;6.33
64861;PMS5003;62652;42.274;-71.436;2023-03-11T05:35:00;11.57;9.13;6.90
64861;PMS5003;62652;42.274;-71.436;2023-03-11T05:36:03;10.93;9.63;6.57
64861;PMS5003;62652;42.274;-71.436;2023-03-11T05:37:00;10.67;10.10;6.87
64861;PMS5003;62652;42.274;-71.436;2023-03-11T05:38:00;11.80;9.73;6.30
64861;PMS5003;62652;42.274;-71.436;2023-03-11T05:39:00;9.17;8.80;6.27
64861;PMS5003;62652;42.274;-71.436;2023-03-11T05:40:00;11.17;10.67;7.33